Flight Track Log - Related Links

Times and Time Zones

All times are in EDT time to prevent confusion due to time zone crossing. See the UAL906 flight status page for this flight to view local times or setup timezone preferences in your user account.

Time Position Orientation Groundspeed Altitude Reporting Facility
EDT Latitude Longitude Course Direction KTS MPH feet Rate Location/Type
Fri 06:48:11 AM 50.0460 8.5660 115° Southeast 12 14  Level FlightAware ADS-B
Fri 06:49:03 AM 50.0460 8.5650 270° West 11 13 41 Level FlightAware ADS-B
Fri 06:51:00 AM 50.1646 8.2610 300° West  Level FlightAware Approximate
Fri 06:52:00 AM 50.2284 8.1100 308° West  Level FlightAware Approximate
Fri 06:53:00 AM 50.2943 7.9615 308° West  Level FlightAware Approximate
Fri 06:54:00 AM 50.3658 7.8183 308° West  Level FlightAware Approximate
Fri 06:54:47 AM 50.0450 8.5640 308° West 18 21  Level FlightAware ADS-B
Fri 06:55:21 AM 50.0450 8.5630 270° West 15 17 66 Level FlightAware ADS-B
Fri 06:55:55 AM 50.0450 8.5620 270° West 25 29 70 Level FlightAware ADS-B
Fri 06:56:21 AM 50.0440 8.5600 232° Southwest 27 31 74 Level FlightAware ADS-B
Fri 06:56:45 AM 50.0430 8.5610 147° Southeast 26 30 78 Level FlightAware ADS-B
Fri 06:57:11 AM 50.0430 8.5620 90° East 23 26 81 Level FlightAware ADS-B
Fri 06:57:41 AM 50.0410 8.5630 162° South 30 35 86 Level FlightAware ADS-B
Fri 06:57:53 AM 50.0410 8.5610 270° West 33 38 91 Level FlightAware ADS-B
Fri 06:58:21 AM 50.0400 8.5590 232° Southwest 16 18 94 Level FlightAware ADS-B
Fri 06:58:50 AM 50.0400 8.5560 270° West 18 21 100 Level FlightAware ADS-B
Fri 06:59:17 AM 50.0390 8.5530 243° Southwest 17 20 107 Level FlightAware ADS-B
Fri 06:59:47 AM 50.0380 8.5490 249° West 18 21 115 Level FlightAware ADS-B
Fri 06:59:59 AM 50.0380 8.5480 270° West 18 21 126 Level FlightAware ADS-B
Fri 07:00:28 AM 50.0370 8.5440 249° West 19 22 130 Level FlightAware ADS-B
Fri 07:00:55 AM 50.0360 8.5410 243° Southwest 17 20 143 Level FlightAware ADS-B
Fri 07:01:23 AM 50.0350 8.5380 243° Southwest 18 21 158 Level FlightAware ADS-B
Fri 07:01:53 AM 50.0350 8.5340 270° West 16 18 176 Level FlightAware ADS-B
Fri 07:02:09 AM 50.0340 8.5330 213° Southwest 21 24 202 Level FlightAware ADS-B
Fri 07:03:30 AM 50.0330 8.5340 147° Southeast 14 16 219 Level FlightAware ADS-B
Fri 07:03:59 AM 50.0330 8.5350 90° East 18 21 378 Level FlightAware ADS-B
Fri 07:04:25 AM 50.0330 8.5380 90° East 42 48 512 Level FlightAware ADS-B
Fri 07:04:53 AM 50.0370 8.5550 70° East 145 167 750 Level FlightAware ADS-B
Fri 07:05:21 AM 50.0460 8.5890 68° East 177 204 700 1,929 Climbing FlightAware ADS-B
Fri 07:05:49 AM 50.0530 8.6230 72° East 180 207 1,800 2,250 Climbing FlightAware ADS-B
Fri 07:06:17 AM 50.0610 8.6570 70° East 182 209 2,800 1,909 Climbing FlightAware ADS-B
Fri 07:06:33 AM 50.0650 8.6780 73° East 185 213 3,200 1,067 Climbing FlightAware ADS-B
Fri 07:07:02 AM 50.0760 8.7130 64° Northeast 208 239 3,600 842 Climbing FlightAware ADS-B
Fri 07:07:30 AM 50.0900 8.7280 35° Northeast 224 258 4,000 1,080 Climbing FlightAware ADS-B
Fri 07:07:52 AM 50.1100 8.7390 19° North 236 272 4,500 2,038 Climbing FlightAware ADS-B
Fri 07:08:23 AM 50.1530 8.7650 21° North 252 290 5,800 2,151 Climbing FlightAware ADS-B
Fri 07:08:45 AM 50.1840 8.7770 14° North 271 312 6,400 1,731 Climbing FlightAware ADS-B
Fri 07:09:15 AM 50.2190 8.7540 337° Northwest 290 334 7,300 1,393 Climbing FlightAware ADS-B
Fri 07:09:41 AM 50.2470 8.7180 321° Northwest 312 359 7,700 1,000 Climbing FlightAware ADS-B
Fri 07:09:57 AM 50.2660 8.6940 321° Northwest 326 375 8,000 1,350 Climbing FlightAware ADS-B
Fri 07:10:21 AM 50.2950 8.6580 322° Northwest 343 395 8,600 1,625 Climbing FlightAware ADS-B
Fri 07:10:45 AM 50.3230 8.6180 318° Northwest 356 410 9,300 1,412 Climbing FlightAware ADS-B
Fri 07:10:55 AM 50.3320 8.5950 302° West 364 419 9,400 1,607 Climbing FlightAware ADS-B
Fri 07:11:41 AM 50.3650 8.4820 295° West 380 437 10,800 1,814 Climbing FlightAware ADS-B
Fri 07:12:21 AM 50.3970 8.3820 297° West 390 449 12,000 1,840 Climbing FlightAware ADS-B
Fri 07:12:56 AM 50.4260 8.2960 298° West 397 457 13,100 1,605 Climbing FlightAware ADS-B
Fri 07:13:47 AM 50.4590 8.1970 298° West 402 463 14,300 1,517 Climbing FlightAware ADS-B
Fri 07:14:23 AM 50.4890 8.1080 298° West 408 470 15,300 1,610 Climbing FlightAware ADS-B
Fri 07:15:09 AM 50.5320 7.9800 298° West 419 482 16,500 1,852 Climbing FlightAware ADS-B
Fri 07:15:44 AM 50.5760 7.8500 298° West 427 491 17,800 2,278 Climbing FlightAware ADS-B
Fri 07:16:28 AM 50.6150 7.7320 298° West 416 479 19,500 1,841 Climbing FlightAware ADS-B
Fri 07:17:12 AM 50.6570 7.6070 298° West 436 502 20,500 1,263 Climbing FlightAware ADS-B
Fri 07:17:44 AM 50.6750 7.5500 297° West 439 505 21,100 1,324 Climbing FlightAware ADS-B
Fri 07:18:20 AM 50.7070 7.4520 297° West 445 512 22,000 1,571 Climbing FlightAware ADS-B
Fri 07:19:08 AM 50.7850 7.2970 309° West 449 517 23,300 1,435 Climbing FlightAware ADS-B
Fri 07:19:52 AM 50.8620 7.2160 326° Northwest 454 522 24,200 1,214 Climbing FlightAware ADS-B
Fri 07:20:32 AM 50.9300 7.1450 327° Northwest 461 531 25,000 878 Climbing FlightAware ADS-B
Fri 07:21:14 AM 50.9860 7.0320 308° West 484 557 25,400 714 Climbing FlightAware ADS-B
Fri 07:21:56 AM 51.0140 6.8860 287° West 494 568 26,000 975 Climbing FlightAware ADS-B
Fri 07:22:34 AM 51.0360 6.7490 284° West 498 573 26,700 1,000 Climbing FlightAware ADS-B
Fri 07:23:14 AM 51.0590 6.6100 285° West 504 580 27,300 900 Climbing FlightAware ADS-B
Fri 07:23:54 AM 51.0820 6.4640 284° West 509 586 27,900 947 Climbing FlightAware ADS-B
Fri 07:24:30 AM 51.1040 6.3310 285° West 512 589 28,500 935 Climbing FlightAware ADS-B
Fri 07:25:11 AM 51.1280 6.1840 285° West 517 595 29,100 815 Climbing FlightAware ADS-B
Fri 07:25:51 AM 51.1510 6.0400 284° West 520 598 29,600 1,097 Climbing FlightAware ADS-B
Fri 07:26:44 AM 51.1820 5.8360 284° West 517 595 30,800 1,200 Climbing FlightAware ADS-B
Fri 07:27:26 AM 51.2000 5.6870 281° West 516 594 31,500 1,012 Climbing FlightAware ADS-B
Fri 07:28:07 AM 51.2170 5.5350 280° West 516 594 32,200 977 Climbing FlightAware ADS-B
Fri 07:28:52 AM 51.2350 5.3640 280° West 514 592 32,900 929 Climbing FlightAware ADS-B
Fri 07:29:31 AM 51.2480 5.2240 278° West 514 592 33,500 732 Climbing FlightAware ADS-B
Fri 07:30:14 AM 51.2656 5.0562 278° West 482 555 33,900 682 Climbing FlightAware UK
Fri 07:30:15 AM 51.2650 5.0570 278° West 513 590 34,000 143 Climbing FlightAware ADS-B
Fri 07:30:56 AM 51.2800 4.9020 279° West 511 588 34,000  Level FlightAware ADS-B
Fri 07:31:40 AM 51.2960 4.7390 279° West 511 588 34,000  Level FlightAware ADS-B
Fri 07:32:20 AM 51.3100 4.5870 278° West 510 587 34,000  Level FlightAware ADS-B
Fri 07:32:56 AM 51.3230 4.4517 278° West 484 557 34,000  Level FlightAware UK
Fri 07:33:04 AM 51.3250 4.4260 278° West 510 587 34,000  Level FlightAware ADS-B
Fri 07:33:43 AM 51.3370 4.3020 279° West 509 586 34,000  Level FlightAware ADS-B
Fri 07:34:38 AM 51.3530 4.1240 278° West 509 586 34,000  Level FlightAware ADS-B
Fri 07:35:16 AM 51.3650 3.9930 278° West 509 586 34,000  Level FlightAware ADS-B
Fri 07:36:03 AM 51.3860 3.7580 278° West 508 585 34,000 -74 Level FlightAware ADS-B
Fri 07:36:37 AM 51.3975 3.6269 278° West 482 555 33,900  Descending FlightAware UK
Fri 07:36:48 AM 51.4000 3.5960 278° West 507 583 34,000 128 Climbing FlightAware ADS-B
Fri 07:37:24 AM 51.4120 3.4600 278° West 507 583 34,000 -76 Level FlightAware ADS-B
Fri 07:38:07 AM 51.4257 3.2926 278° West 480 552 33,900  Descending FlightAware UK
Fri 07:38:28 AM 51.4300 3.2390 278° West 507 583 34,000 91 Climbing FlightAware ADS-B
Fri 07:39:13 AM 51.4460 3.0550 278° West 507 583 34,000 -74 Level FlightAware ADS-B
Fri 07:39:49 AM 51.4573 2.9135 278° West 478 550 33,900  Descending FlightAware UK
Fri 07:39:56 AM 51.4550 2.9360 278° West 508 585 34,000 136 Climbing FlightAware ADS-B
Fri 07:40:33 AM 51.4690 2.7700 278° West 508 585 34,000  Level FlightAware ADS-B
Fri 07:41:14 AM 51.4820 2.6060 277° West 509 586 34,000  Level FlightAware ADS-B
Fri 07:41:49 AM 51.4925 2.4652 277° West 478 550 34,000  Level FlightAware UK
Fri 07:41:55 AM 51.4930 2.4520 277° West 510 587 34,000  Level FlightAware ADS-B
Fri 07:42:31 AM 51.5040 2.3170 278° West 511 588 34,000  Level FlightAware ADS-B
Fri 07:42:50 AM 51.5094 2.2398 276° West 512 589 34,000  Level FlightAware ADS-B
Fri 07:43:21 AM 51.5181 2.1220 277° West 513 590 34,000  Level FlightAware ADS-B
Fri 07:43:55 AM 51.5275 1.9931 277° West 512 589 34,000  Level FlightAware ADS-B
Fri 07:44:26 AM 51.5360 1.8748 277° West 512 589 34,000  Level FlightAware ADS-B
Fri 07:45:23 AM 51.5500 1.6760 277° West 512 589 34,000  Level FlightAware ADS-B
Fri 07:46:01 AM 51.5610 1.5190 277° West 512 589 34,000  Level FlightAware ADS-B
Fri 07:46:07 AM 51.5626 1.4947 277° West 482 555 34,000  Level FlightAware UK
Fri 07:46:46 AM 51.5643 1.3482 272° West 513 590 34,000  Level FlightAware ADS-B
Fri 07:47:18 AM 51.5634 1.2279 269° West 512 589 34,000  Level FlightAware ADS-B
Fri 07:47:50 AM 51.5615 1.1061 269° West 511 588 34,000  Level FlightAware ADS-B
Fri 07:48:20 AM 51.5593 0.9924 268° West 509 586 34,000  Level FlightAware ADS-B
Fri 07:48:57 AM 51.5563 0.8513 268° West 508 585 34,000  Level FlightAware ADS-B
Fri 07:49:29 AM 51.5536 0.7339 268° West 506 582 34,000  Level FlightAware ADS-B
Fri 07:50:01 AM 51.5506 0.6127 268° West 506 582 34,000  Level FlightAware ADS-B
Fri 07:50:33 AM 51.5477 0.4929 268° West 506 582 34,000  Level FlightAware ADS-B
Fri 07:51:07 AM 51.5442 0.3646 268° West 505 581 34,000  Level FlightAware ADS-B
Fri 07:51:39 AM 51.5410 0.2448 268° West 504 580 34,000  Level FlightAware ADS-B
Fri 07:52:09 AM 51.5378 0.1328 267° West 504 580 34,000  Level FlightAware ADS-B
Fri 07:52:41 AM 51.5344 0.0156 267° West 503 579 34,000  Level FlightAware ADS-B
Fri 07:53:14 AM 51.5307 -0.1064 267° West 502 578 34,000  Level FlightAware ADS-B
Fri 07:53:44 AM 51.5273 -0.2184 267° West 502 578 34,000  Level FlightAware ADS-B
Fri 07:54:16 AM 51.5235 -0.3376 267° West 501 577 34,000  Level FlightAware ADS-B
Fri 07:54:47 AM 51.5197 -0.4523 267° West 501 577 34,000  Level FlightAware ADS-B
Fri 07:55:20 AM 51.5156 -0.5737 267° West 501 577 34,000  Level FlightAware ADS-B
Fri 07:55:50 AM 51.5117 -0.6864 267° West 501 577 34,000  Level FlightAware ADS-B
Fri 07:56:22 AM 51.5075 -0.8048 267° West 501 577 34,000  Level FlightAware ADS-B
Fri 07:56:54 AM 51.5031 -0.9231 267° West 501 577 34,000  Level FlightAware ADS-B
Fri 07:57:25 AM 51.4988 -1.0371 267° West 502 578 34,000  Level FlightAware ADS-B
Fri 07:57:57 AM 51.4945 -1.1546 267° West 502 578 34,000  Level FlightAware ADS-B
Fri 07:58:16 AM 51.4957 -1.2241 272° West 503 579 34,000  Level FlightAware ADS-B
Fri 07:58:31 AM 51.4998 -1.2814 277° West 503 579 34,000  Level FlightAware ADS-B
Fri 07:59:03 AM 51.5129 -1.3969 280° West 504 580 34,000  Level FlightAware ADS-B
Fri 07:59:34 AM 51.5302 -1.5123 284° West 505 581 34,000  Level FlightAware ADS-B
Fri 08:00:06 AM 51.5497 -1.6274 285° West 506 582 34,000  Level FlightAware ADS-B
Fri 08:00:39 AM 51.5695 -1.7438 285° West 506 582 34,000  Level FlightAware ADS-B
Fri 08:01:10 AM 51.5862 -1.8587 283° West 506 582 34,000  Level FlightAware ADS-B
Fri 08:01:41 AM 51.6017 -1.9715 283° West 507 583 34,000  Level FlightAware ADS-B
Fri 08:02:12 AM 51.6177 -2.0870 283° West 507 583 34,000  Level FlightAware ADS-B
Fri 08:02:48 AM 51.6361 -2.2192 283° West 507 583 34,000  Level FlightAware ADS-B
Fri 08:03:22 AM 51.6535 -2.3442 283° West 508 585 34,000  Level FlightAware ADS-B
Fri 08:03:55 AM 51.6701 -2.4640 283° West 509 586 34,000  Level FlightAware ADS-B
Fri 08:04:28 AM 51.6872 -2.5875 283° West 509 586 34,000  Level FlightAware ADS-B
Fri 08:05:04 AM 51.7050 -2.7176 282° West 510 587 34,000  Level FlightAware ADS-B
Fri 08:05:37 AM 51.7217 -2.8417 282° West 511 588 34,000  Level FlightAware ADS-B
Fri 08:06:08 AM 51.7373 -2.9576 282° West 512 589 34,000  Level FlightAware ADS-B
Fri 08:07:00 AM 51.7630 -3.1510 282° West 512 589 34,000  Level FlightAware ADS-B
Fri 08:07:38 AM 51.7760 -3.2870 279° West 512 589 34,000  Level FlightAware ADS-B
Fri 08:08:19 AM 51.7800 -3.4390 272° West 512 589 34,000  Level FlightAware ADS-B
Fri 08:08:58 AM 51.7820 -3.5570 272° West 513 590 34,000  Level FlightAware ADS-B
Fri 08:09:39 AM 51.7838 -3.7572 272° West 480 552 34,000  Level FlightAware UK
Fri 08:09:56 AM 51.7840 -3.7820 272° West 514 592 34,000  Level FlightAware ADS-B
Fri 08:10:33 AM 51.7860 -3.9470 271° West 516 594 34,000  Level FlightAware ADS-B
Fri 08:11:15 AM 51.7874 -4.1249 271° West 482 555 34,000  Level FlightAware UK
Fri 08:11:33 AM 51.7880 -4.1900 271° West 517 595 34,000  Level FlightAware ADS-B
Fri 08:12:03 AM 51.7888 -4.3089 271° West 482 555 34,000  Level FlightAware UK
Fri 08:12:35 AM 51.7900 -4.4260 271° West 518 596 34,000  Level FlightAware ADS-B
Fri 08:13:24 AM 51.7910 -4.6200 271° West 518 596 34,000  Level FlightAware ADS-B
Fri 08:14:08 AM 51.7910 -4.7380 270° West 519 597 34,000  Level FlightAware ADS-B
Fri 08:14:47 AM 51.7910 -4.8900 270° West 519 597 34,000 250 Level FlightAware ADS-B
Fri 08:15:44 AM 51.7920 -5.1580 270° West 512 589 34,400 414 Climbing FlightAware ADS-B
Fri 08:15:45 AM 51.7918 -5.1640 270° West 474 545 34,400 571 Level FlightAware UK
Fri 08:16:26 AM 51.8040 -5.3160 277° West 517 595 34,800 429 Climbing FlightAware ADS-B
Fri 08:17:09 AM 51.8308 -5.4791 277° West 478 550 35,000 273 Climbing FlightAware UK
Fri 08:17:10 AM 51.8310 -5.4810 277° West 519 597 35,000  Level FlightAware ADS-B
Fri 08:17:44 AM 51.8520 -5.6090 285° West 519 597 35,000  Level FlightAware ADS-B
Fri 08:18:25 AM 51.8770 -5.7620 285° West 520 598 35,000  Level FlightAware ADS-B
Fri 08:19:05 AM 51.9010 -5.9100 285° West 519 597 35,000  Level FlightAware ADS-B
Fri 08:19:50 AM 51.9290 -6.0820 285° West 518 596 35,000  Level FlightAware ADS-B
Fri 08:20:33 AM 51.9548 -6.2426 285° West 482 555 35,000  Level FlightAware UK
Fri 08:20:33 AM 51.9460 -6.1910 285° West 517 595 35,000  Level FlightAware ADS-B
Fri 08:21:03 AM 51.9727 -6.3548 285° West 482 555 35,000  Level FlightAware UK
Fri 08:21:21 AM 51.9750 -6.3700 285° West 517 595 35,000  Level FlightAware ADS-B
Fri 08:22:03 AM 52.0084 -6.5793 285° West 482 555 35,000  Level FlightAware UK
Fri 08:22:11 AM 52.0120 -6.6070 285° West 515 593 35,000  Level FlightAware ADS-B
Fri 08:22:51 AM 52.0350 -6.7530 284° West 513 590 35,000  Level FlightAware ADS-B
Fri 08:23:31 AM 52.0590 -6.9060 284° West 512 589 35,000 -143 Level FlightAware ADS-B
Fri 08:23:33 AM 52.0606 -6.9160 284° West 480 552 34,900  Descending FlightAware UK
Fri 08:24:03 AM 52.0778 -7.0281 284° West 482 555 35,000 158 Climbing FlightAware UK
Fri 08:24:11 AM 52.0810 -7.0530 284° West 513 590 35,000 -92 Level FlightAware ADS-B
Fri 08:25:08 AM 52.1148 -7.2741 284° West 480 552 34,900  Descending FlightAware UK
Fri 08:25:10 AM 52.1090 -7.2350 284° West 513 590 35,000 130 Climbing FlightAware ADS-B
Fri 08:25:54 AM 52.1390 -7.4380 284° West 510 587 35,000  Level FlightAware ADS-B
Fri 08:26:34 AM 52.1620 -7.5900 284° West 510 587 35,000  Level FlightAware ADS-B
Fri 08:26:38 AM 52.1648 -7.6105 284° West 482 555 35,000  Level FlightAware UK
Fri 08:27:08 AM 52.1813 -7.7225 284° West 478 550 35,000  Level FlightAware UK
Fri 08:27:15 AM 52.1830 -7.7360 284° West 510 587 35,000  Level FlightAware ADS-B
Fri 08:27:55 AM 52.2060 -7.8920 284° West 511 588 35,000  Level FlightAware ADS-B
Fri 08:28:38 AM 52.2297 -8.0589 284° West 480 552 35,000  Level FlightAware UK
Fri 08:28:38 AM 52.2280 -8.0490 284° West 510 587 35,000  Level FlightAware ADS-B
Fri 08:29:08 AM 52.2458 -8.1709 284° West 480 552 35,000  Level FlightAware UK
Fri 08:29:22 AM 52.2450 -8.1660 284° West 510 587 35,000  Level FlightAware ADS-B
Fri 08:29:58 AM 52.2710 -8.3490 283° West 510 587 35,000  Level FlightAware ADS-B
Fri 08:30:43 AM 52.2940 -8.5200 282° West 510 587 35,000  Level FlightAware ADS-B
Fri 08:31:14 AM 52.3112 -8.6418 282° West 482 555 35,000  Level FlightAware UK
Fri 08:31:18 AM 52.3110 -8.6410 282° West 510 587 35,000  Level FlightAware ADS-B
Fri 08:31:59 AM 52.3330 -8.8010 283° West 507 583 35,000  Level FlightAware ADS-B
Fri 08:32:36 AM 52.3510 -8.9340 283° West 507 583 35,000  Level FlightAware ADS-B
Fri 08:33:28 AM 52.3720 -9.0940 282° West 507 583 35,000  Level FlightAware ADS-B
Fri 08:34:11 AM 52.3990 -9.2990 282° West 508 585 35,000  Level FlightAware ADS-B
Fri 08:34:50 AM 52.4180 -9.4410 282° West 505 581 35,000  Level FlightAware ADS-B
Fri 08:35:35 AM 52.4400 -9.6120 282° West 505 581 35,000  Level FlightAware ADS-B
Fri 08:36:18 AM 52.4590 -9.7640 282° West 505 581 35,000  Level FlightAware ADS-B
Fri 08:37:15 AM 52.4870 -9.9880 282° West 505 581 35,000  Level FlightAware ADS-B
Fri 08:37:54 AM 52.5060 -10.1340 282° West 505 581 35,000  Level FlightAware ADS-B
Fri 08:38:30 AM 52.5220 -10.2680 281° West 504 580 35,000  Level FlightAware ADS-B
Fri 08:39:11 AM 52.5410 -10.4210 282° West 504 580 35,000  Level FlightAware ADS-B
Fri 08:39:51 AM 52.5590 -10.5730 281° West 504 580 35,000  Level FlightAware ADS-B
Fri 08:40:29 AM 52.5720 -10.6820 281° West 504 580 35,000  Level FlightAware ADS-B
Fri 08:41:18 AM 52.5920 -10.8540 281° West 504 580 35,000  Level FlightAware ADS-B
Fri 08:42:01 AM 52.6160 -11.0600 281° West 502 578 35,000  Level FlightAware ADS-B
Fri 08:42:36 AM 52.6310 -11.1920 281° West 502 578 35,000  Level FlightAware ADS-B
Fri 08:43:21 AM 52.6500 -11.3620 281° West 502 578 35,000  Level FlightAware ADS-B
Fri 08:44:13 AM 52.6680 -11.5340 280° West 503 579 35,000  Level FlightAware ADS-B
Fri 08:44:52 AM 52.6800 -11.6600 279° West 503 579 35,000  Level FlightAware ADS-B
Fri 08:45:40 AM 52.6950 -11.8150 279° West 503 579 35,000  Level FlightAware ADS-B
Fri 08:46:32 AM 52.7290 -12.0830 282° West 506 582 35,000  Level FlightAware ADS-B
Fri 08:47:42 AM 52.7560 -12.3460 280° West 508 585 35,000  Level FlightAware ADS-B
Fri 08:48:19 AM 52.7710 -12.4830 280° West 508 585 35,000  Level FlightAware ADS-B
Fri 08:49:20 AM 52.7940 -12.7110 280° West 506 582 35,000  Level FlightAware ADS-B
Fri 08:49:59 AM 52.8060 -12.8380 279° West 506 582 35,000 69 Level FlightAware ADS-B
Fri 08:50:47 AM 52.8280 -13.0560 280° West 503 579 35,100 70 Climbing FlightAware ADS-B
Fri 08:51:25 AM 52.8400 -13.1820 279° West 502 578 35,100  Level FlightAware ADS-B
Fri 08:52:13 AM 52.8550 -13.3370 279° West 502 578 35,100  Level FlightAware ADS-B
Fri 08:52:37 AM 52.8620 -13.4140 279° West 502 578 35,100  Level FlightAware ADS-B
Fri 08:53:24 AM 52.8760 -13.5660 279° West 502 578 35,100  Level FlightAware ADS-B
Fri 08:55:00 AM 52.9060 -13.8770 279° West 502 578 35,100  Level FlightAware ADS-B
Fri 08:55:36 AM 52.9170 -13.9930 279° West 502 578 35,100  Level FlightAware ADS-B
Fri 08:56:38 AM 52.9360 -14.1940 279° West 502 578 35,100  Level FlightAware ADS-B
Fri 08:57:12 AM 52.9470 -14.3040 279° West 502 578 35,100  Level FlightAware ADS-B
Fri 08:58:01 AM 52.9620 -14.4620 279° West 502 578 35,100  Level FlightAware ADS-B
Fri 08:58:37 AM 52.9730 -14.5790 279° West 502 578 35,100  Level FlightAware ADS-B
Fri 09:00:02 AM 52.9990 -14.8540 279° West 502 578 35,100  Level FlightAware ADS-B
Fri 09:00:38 AM 53.0100 -14.9710 279° West 502 578 35,100 39 Level FlightAware ADS-B
Fri 09:03:00 AM 53.1014 -15.4501 288° West  Level Estimated
Fri 09:04:00 AM 53.1395 -15.6532 287° West  Level Estimated
Fri 09:05:00 AM 53.1772 -15.8566 287° West  Level Estimated
Fri 09:06:00 AM 53.2145 -16.0604 287° West  Level Estimated
Fri 09:07:00 AM 53.2515 -16.2645 287° West  Level Estimated
Fri 09:08:00 AM 53.2882 -16.4689 287° West  Level Estimated
Fri 09:09:00 AM 53.3245 -16.6738 287° West  Level Estimated
Fri 09:10:00 AM 53.3605 -16.8789 286° West  Level Estimated
Fri 09:11:00 AM 53.3961 -17.0844 286° West  Level Estimated
Fri 09:12:00 AM 53.4313 -17.2903 286° West  Level Estimated
Fri 09:13:00 AM 53.4662 -17.4965 286° West  Level Estimated
Fri 09:14:00 AM 53.5008 -17.7031 286° West  Level Estimated
Fri 09:15:00 AM 53.5350 -17.9099 286° West  Level Estimated
Fri 09:16:00 AM 53.5688 -18.1171 285° West  Level Estimated
Fri 09:17:00 AM 53.6023 -18.3246 285° West  Level Estimated
Fri 09:18:00 AM 53.6354 -18.5325 285° West  Level Estimated
Fri 09:19:00 AM 53.6681 -18.7407 285° West  Level Estimated
Fri 09:20:00 AM 53.7005 -18.9492 285° West  Level Estimated
Fri 09:21:00 AM 53.7325 -19.1580 285° West  Level Estimated
Fri 09:22:00 AM 53.7642 -19.3672 284° West  Level Estimated
Fri 09:23:00 AM 53.7955 -19.5766 284° West  Level Estimated
Fri 09:23:00 AM 54.0000 -20.0000 284° West 504 580 36,000  Level ETMS Enhanced Traffic Management System
Fri 09:24:00 AM 53.8260 -19.7836 284° West  Level Estimated
Fri 09:25:00 AM 53.8562 -19.9909 284° West  Level Estimated
Fri 09:26:00 AM 53.8860 -20.1985 284° West  Level Estimated
Fri 09:27:00 AM 53.9154 -20.4064 284° West  Level Estimated
Fri 09:28:00 AM 53.9445 -20.6146 283° West  Level Estimated
Fri 09:29:00 AM 54.2535 -21.8641 282° West 504 580 36,000  Level FlightAware Transoceanic
Fri 09:30:00 AM 54.2832 -22.0987 282° West 504 580 36,000  Level FlightAware Transoceanic
Fri 09:31:00 AM 54.3124 -22.3337 282° West 504 580 36,000  Level FlightAware Transoceanic
Fri 09:32:00 AM 54.3411 -22.5689 282° West 504 580 36,000  Level FlightAware Transoceanic
Fri 09:33:00 AM 54.3694 -22.8045 282° West 504 580 36,000  Level FlightAware Transoceanic
Fri 09:34:00 AM 54.3972 -23.0404 281° West 504 580 36,000  Level FlightAware Transoceanic
Fri 09:35:00 AM 54.4246 -23.2766 281° West 504 580 36,000  Level FlightAware Transoceanic
Fri 09:36:00 AM 54.4515 -23.5131 281° West 504 580 36,000  Level FlightAware Transoceanic
Fri 09:37:00 AM 54.4780 -23.7500 281° West 504 580 36,000  Level FlightAware Transoceanic
Fri 09:38:00 AM 54.5039 -23.9871 281° West 504 580 36,000  Level FlightAware Transoceanic
Fri 09:39:00 AM 54.5294 -24.2246 280° West 504 580 36,000  Level FlightAware Transoceanic
Fri 09:40:00 AM 54.5545 -24.4623 280° West 504 580 36,000  Level FlightAware Transoceanic
Fri 09:41:00 AM 54.5791 -24.7004 280° West 504 580 36,000  Level FlightAware Transoceanic
Fri 09:42:00 AM 54.6032 -24.9387 280° West 504 580 36,000  Level FlightAware Transoceanic
Fri 09:43:00 AM 54.6268 -25.1773 280° West 504 580 36,000  Level FlightAware Transoceanic
Fri 09:44:00 AM 54.6500 -25.4161 279° West 504 580 36,000  Level FlightAware Transoceanic
Fri 09:45:00 AM 54.6727 -25.6553 279° West 504 580 36,000  Level FlightAware Transoceanic
Fri 09:46:00 AM 54.6950 -25.8947 279° West 504 580 36,000  Level FlightAware Transoceanic
Fri 09:47:00 AM 54.7167 -26.1343 279° West 504 580 36,000  Level FlightAware Transoceanic
Fri 09:48:00 AM 54.7380 -26.3743 279° West 504 580 36,000  Level FlightAware Transoceanic
Fri 09:49:00 AM 54.7588 -26.6144 278° West 504 580 36,000  Level FlightAware Transoceanic
Fri 09:50:00 AM 54.7792 -26.8548 278° West 504 580 36,000  Level FlightAware Transoceanic
Fri 09:51:00 AM 54.7990 -27.0955 278° West 504 580 36,000  Level FlightAware Transoceanic
Fri 09:52:00 AM 54.8184 -27.3364 278° West 504 580 36,000  Level FlightAware Transoceanic
Fri 09:53:00 AM 54.8373 -27.5775 278° West 504 580 36,000  Level FlightAware Transoceanic
Fri 09:54:00 AM 54.8558 -27.8188 277° West 504 580 36,000  Level FlightAware Transoceanic
Fri 09:55:00 AM 54.8737 -28.0604 277° West 504 580 36,000  Level FlightAware Transoceanic
Fri 09:56:00 AM 54.8912 -28.3022 277° West 504 580 36,000  Level FlightAware Transoceanic
Fri 09:57:00 AM 54.9082 -28.5441 277° West 504 580 36,000  Level FlightAware Transoceanic
Fri 09:58:00 AM 54.9247 -28.7863 277° West 504 580 36,000  Level FlightAware Transoceanic
Fri 09:59:00 AM 54.9407 -29.0287 276° West 504 580 36,000  Level FlightAware Transoceanic
Fri 10:00:00 AM 54.9563 -29.2712 276° West 504 580 36,000  Level FlightAware Transoceanic
Fri 10:01:00 AM 54.9713 -29.5140 276° West 504 580 36,000  Level FlightAware Transoceanic
Fri 10:02:00 AM 54.9859 -29.7569 276° West 504 580 36,000  Level FlightAware Transoceanic
Fri 10:03:00 AM 54.9986 -29.9754 276° West  Level FlightAware Approximate
Fri 10:04:00 AM 55.0109 -30.1940 276° West  Level FlightAware Approximate
Fri 10:05:00 AM 55.0069 -30.1697 274° West  Level FlightAware Approximate
Fri 10:06:00 AM 55.0154 -30.3889 274° West  Level FlightAware Approximate
Fri 10:07:00 AM 55.0234 -30.6078 274° West  Level FlightAware Approximate
Fri 10:08:00 AM 55.0312 -30.8267 274° West  Level FlightAware Approximate
Fri 10:09:00 AM 55.0385 -31.0458 273° West  Level FlightAware Approximate
Fri 10:10:00 AM 55.0454 -31.2649 273° West  Level FlightAware Approximate
Fri 10:11:00 AM 55.0519 -31.4841 273° West  Level FlightAware Approximate
Fri 10:12:00 AM 55.0580 -31.7033 273° West  Level FlightAware Approximate
Fri 10:13:00 AM 55.0638 -31.9226 273° West  Level FlightAware Approximate
Fri 10:14:00 AM 55.0691 -32.1420 273° West  Level FlightAware Approximate
Fri 10:15:00 AM 55.0740 -32.3614 272° West  Level FlightAware Approximate
Fri 10:16:00 AM 55.0786 -32.5809 272° West  Level FlightAware Approximate
Fri 10:17:00 AM 55.0827 -32.8004 272° West  Level FlightAware Approximate
Fri 10:18:00 AM 55.0865 -33.0200 272° West  Level FlightAware Approximate
Fri 10:19:00 AM 55.0899 -33.2397 272° West  Level FlightAware Approximate
Fri 10:20:00 AM 55.0928 -33.4593 271° West  Level FlightAware Approximate
Fri 10:21:00 AM 55.0954 -33.6790 271° West  Level FlightAware Approximate
Fri 10:22:00 AM 55.0976 -33.8987 271° West  Level FlightAware Approximate
Fri 10:23:00 AM 55.0994 -34.1184 271° West  Level FlightAware Approximate
Fri 10:24:00 AM 55.1008 -34.3382 271° West  Level FlightAware Approximate
Fri 10:25:00 AM 55.1018 -34.5579 271° West  Level FlightAware Approximate
Fri 10:26:00 AM 55.1024 -34.7777 270° West  Level FlightAware Approximate
Fri 10:27:00 AM 55.1026 -34.9975 270° West  Level FlightAware Approximate
Fri 10:28:00 AM 55.1024 -35.2172 270° West  Level FlightAware Approximate
Fri 10:29:00 AM 55.1018 -35.4370 270° West  Level FlightAware Approximate
Fri 10:30:00 AM 55.1008 -35.6568 270° West  Level FlightAware Approximate
Fri 10:31:00 AM 55.0994 -35.8765 269° West  Level FlightAware Approximate
Fri 10:32:00 AM 55.0976 -36.0962 269° West  Level FlightAware Approximate
Fri 10:33:00 AM 55.0955 -36.3160 269° West  Level FlightAware Approximate
Fri 10:34:00 AM 55.0929 -36.5356 269° West  Level FlightAware Approximate
Fri 10:35:00 AM 55.0899 -36.7553 269° West  Level FlightAware Approximate
Fri 10:36:00 AM 55.0866 -36.9749 269° West  Level FlightAware Approximate
Fri 10:37:00 AM 55.0828 -37.1945 268° West  Level FlightAware Approximate
Fri 10:38:00 AM 55.0787 -37.4140 268° West  Level FlightAware Approximate
Fri 10:39:00 AM 55.0741 -37.6335 268° West  Level FlightAware Approximate
Fri 10:40:00 AM 55.0692 -37.8530 268° West  Level FlightAware Approximate
Fri 10:41:00 AM 55.0639 -38.0723 268° West  Level FlightAware Approximate
Fri 10:42:00 AM 55.0582 -38.2916 267° West  Level FlightAware Approximate
Fri 10:43:00 AM 55.0520 -38.5109 267° West  Level FlightAware Approximate
Fri 10:44:00 AM 55.0455 -38.7301 267° West  Level FlightAware Approximate
Fri 10:45:00 AM 55.0386 -38.9492 267° West  Level FlightAware Approximate
Fri 10:46:00 AM 55.0313 -39.1682 267° West  Level FlightAware Approximate
Fri 10:47:00 AM 55.0236 -39.3872 267° West  Level FlightAware Approximate
Fri 10:48:00 AM 55.0155 -39.6060 266° West  Level FlightAware Approximate
Fri 10:49:00 AM 55.0071 -39.8248 266° West  Level FlightAware Approximate
Fri 10:50:00 AM 54.9973 -40.0438 264° West  Level FlightAware Approximate
Fri 10:51:00 AM 54.9833 -40.2620 264° West  Level FlightAware Approximate
Fri 10:52:00 AM 54.9691 -40.4801 264° West  Level FlightAware Approximate
Fri 10:53:00 AM 54.9544 -40.6980 263° West  Level FlightAware Approximate
Fri 10:54:00 AM 54.9393 -40.9158 263° West  Level FlightAware Approximate
Fri 10:55:00 AM 54.9238 -41.1334 263° West  Level FlightAware Approximate
Fri 10:56:00 AM 54.9080 -41.3508 263° West  Level FlightAware Approximate
Fri 10:57:00 AM 54.8917 -41.5681 263° West  Level FlightAware Approximate
Fri 10:58:00 AM 54.8751 -41.7851 263° West  Level FlightAware Approximate
Fri 10:59:00 AM 54.8581 -42.0020 262° West  Level FlightAware Approximate
Fri 11:00:00 AM 54.8407 -42.2188 262° West  Level FlightAware Approximate
Fri 11:01:00 AM 54.8229 -42.4353 262° West  Level FlightAware Approximate
Fri 11:02:00 AM 54.8047 -42.6516 262° West  Level FlightAware Approximate
Fri 11:03:00 AM 54.7861 -42.8678 262° West  Level FlightAware Approximate
Fri 11:04:00 AM 54.7686 -43.0840 262° West  Level FlightAware Approximate
Fri 11:05:00 AM 54.7509 -43.3002 262° West  Level FlightAware Approximate
Fri 11:06:00 AM 54.7329 -43.5162 262° West  Level FlightAware Approximate
Fri 11:07:00 AM 54.7144 -43.7320 262° West  Level FlightAware Approximate
Fri 11:08:00 AM 54.6956 -43.9476 261° West  Level FlightAware Approximate
Fri 11:09:00 AM 54.6764 -44.1629 261° West  Level FlightAware Approximate
Fri 11:10:00 AM 54.6568 -44.3781 261° West  Level FlightAware Approximate
Fri 11:11:00 AM 54.6368 -44.5931 261° West  Level FlightAware Approximate
Fri 11:12:00 AM 54.6165 -44.8078 261° West  Level FlightAware Approximate
Fri 11:13:00 AM 54.5957 -45.0224 261° West  Level FlightAware Approximate
Fri 11:14:00 AM 54.5746 -45.2367 260° West  Level FlightAware Approximate
Fri 11:15:00 AM 54.5531 -45.4508 260° West  Level FlightAware Approximate
Fri 11:16:00 AM 54.5313 -45.6646 260° West  Level FlightAware Approximate
Fri 11:17:00 AM 54.5090 -45.8783 260° West  Level FlightAware Approximate
Fri 11:18:00 AM 54.4864 -46.0917 260° West  Level FlightAware Approximate
Fri 11:19:00 AM 54.4634 -46.3048 260° West  Level FlightAware Approximate
Fri 11:20:00 AM 54.4400 -46.5177 259° West  Level FlightAware Approximate
Fri 11:21:00 AM 54.4163 -46.7304 259° West  Level FlightAware Approximate
Fri 11:22:00 AM 54.3922 -46.9429 259° West  Level FlightAware Approximate
Fri 11:23:00 AM 54.3677 -47.1550 259° West  Level FlightAware Approximate
Fri 11:24:00 AM 54.3428 -47.3670 259° West  Level FlightAware Approximate
Fri 11:25:00 AM 54.3176 -47.5786 259° West  Level FlightAware Approximate
Fri 11:26:00 AM 54.2920 -47.7900 258° West  Level FlightAware Approximate
Fri 11:27:00 AM 54.2660 -48.0012 258° West  Level FlightAware Approximate
Fri 11:28:00 AM 54.2397 -48.2120 258° West  Level FlightAware Approximate
Fri 11:29:00 AM 54.2129 -48.4226 258° West  Level FlightAware Approximate
Fri 11:30:00 AM 54.1859 -48.6329 258° West  Level FlightAware Approximate
Fri 11:31:00 AM 54.1584 -48.8430 258° West  Level FlightAware Approximate
Fri 11:32:00 AM 54.1306 -49.0528 257° West  Level FlightAware Approximate
Fri 11:33:00 AM 54.1024 -49.2622 257° West  Level FlightAware Approximate
Fri 11:34:00 AM 54.0739 -49.4715 257° West  Level FlightAware Approximate
Fri 11:35:00 AM 54.0450 -49.6804 257° West  Level FlightAware Approximate
Fri 11:36:00 AM 54.0157 -49.8890 257° West  Level FlightAware Approximate
Fri 11:37:00 AM 53.9787 -50.0933 249° West  Level FlightAware Approximate
Fri 11:38:00 AM 53.9328 -50.2927 249° West  Level FlightAware Approximate
Fri 11:39:00 AM 53.8865 -50.4916 249° West  Level FlightAware Approximate
Fri 11:40:00 AM 53.8400 -50.6901 248° West  Level FlightAware Approximate
Fri 11:41:00 AM 53.7931 -50.8882 248° West  Level FlightAware Approximate
Fri 11:42:00 AM 53.7459 -51.0858 248° West  Level FlightAware Approximate
Fri 11:43:00 AM 53.6984 -51.2830 248° West  Level FlightAware Approximate
Fri 11:44:00 AM 53.6505 -51.4797 248° West  Level FlightAware Approximate
Fri 11:45:00 AM 53.6023 -51.6759 248° West  Level FlightAware Approximate
Fri 11:46:00 AM 53.5538 -51.8718 247° West  Level FlightAware Approximate
Fri 11:47:00 AM 53.5050 -52.0672 247° West  Level FlightAware Approximate
Fri 11:47:33 AM 53.3333 -53.0667 246° West 470 541 36,000  Level Gander Center
Fri 11:48:00 AM 53.4559 -52.2621 247° West  Level FlightAware Approximate
Fri 11:48:33 AM 53.2833 -53.2667 247° West 470 541 36,000  Level Gander Center
Fri 11:49:00 AM 53.4064 -52.4566 247° West  Level FlightAware Approximate
Fri 11:49:33 AM 53.2500 -53.4833 256° West 470 541 36,000  Level Gander Center
Fri 11:50:00 AM 53.3567 -52.6506 247° West  Level FlightAware Approximate
Fri 11:50:33 AM 53.1833 -53.6833 241° Southwest 470 541 36,000  Level Gander Center
Fri 11:51:00 AM 53.3066 -52.8442 247° West  Level FlightAware Approximate
Fri 11:51:33 AM 53.1333 -53.8833 247° West 470 541 36,000  Level Gander Center
Fri 11:52:00 AM 53.2562 -53.0373 246° West  Level FlightAware Approximate
Fri 11:52:33 AM 53.1000 -54.0833 255° West 470 541 36,000  Level Gander Center
Fri 11:53:33 AM 53.0333 -54.2667 239° Southwest 470 541 36,000  Level Gander Center
Fri 11:54:33 AM 52.9667 -54.4667 241° Southwest 470 541 36,000 250 Level Gander Center
Fri 11:55:33 AM 52.9333 -54.6667 255° West 460 529 36,500 500 Climbing Gander Center
Fri 11:56:33 AM 52.8667 -54.8833 243° Southwest 450 518 37,000 491 Climbing Gander Center
Fri 11:57:23 AM 52.8500 -55.0167 258° West 460 529 37,400 486 Climbing Moncton Center
Fri 11:58:24 AM 52.8000 -55.2333 249° West 460 529 37,900 300 Climbing Moncton Center
Fri 11:59:23 AM 52.7500 -55.4333 248° West 460 529 38,000 50 Climbing Moncton Center
Fri 12:00:23 PM 52.6833 -55.6333 241° Southwest 460 529 38,000  Level Moncton Center
Fri 12:01:23 PM 52.6500 -55.8167 253° West 460 529 38,000  Level Moncton Center
Fri 12:02:23 PM 52.6000 -56.0167 248° West 460 529 38,000  Level Moncton Center
Fri 12:03:23 PM 52.5500 -56.1833 244° Southwest 460 529 38,000  Level Moncton Center
Fri 12:04:23 PM 52.5000 -56.3833 248° West 460 529 38,000  Level Moncton Center
Fri 12:05:24 PM 52.4500 -56.6000 249° West 450 518 38,000  Level Moncton Center
Fri 12:06:23 PM 52.4000 -56.7667 244° Southwest 450 518 38,000  Level Moncton Center
Fri 12:07:23 PM 52.3667 -56.9667 255° West 440 506 38,000  Level Moncton Center
Fri 12:08:24 PM 52.3000 -57.1333 237° Southwest 440 506 38,000  Level Moncton Center
Fri 12:09:24 PM 52.2667 -57.3167 254° West 440 506 38,000  Level Moncton Center
Fri 12:10:23 PM 52.2000 -57.5167 242° Southwest 430 495 38,000  Level Moncton Center
Fri 12:11:24 PM 52.1667 -57.6833 252° West 430 495 38,000  Level Moncton Center
Fri 12:12:24 PM 52.1167 -57.8500 244° Southwest 430 495 38,000  Level Moncton Center
Fri 12:13:23 PM 52.0667 -58.0167 244° Southwest 430 495 38,000  Level Moncton Center
Fri 12:14:23 PM 52.0167 -58.2167 248° West 430 495 38,000  Level Moncton Center
Fri 12:15:24 PM 51.9667 -58.3833 244° Southwest 430 495 38,000  Level Moncton Center
Fri 12:16:23 PM 51.9167 -58.5833 248° West 430 495 38,000  Level Moncton Center
Fri 12:17:23 PM 51.8667 -58.7333 242° Southwest 430 495 38,000  Level Moncton Center
Fri 12:18:23 PM 51.8167 -58.9333 248° West 430 495 38,000  Level Moncton Center
Fri 12:19:23 PM 51.7667 -59.1000 244° Southwest 430 495 38,000  Level Moncton Center
Fri 12:20:23 PM 51.7000 -59.2667 237° Southwest 430 495 38,000  Level Moncton Center
Fri 12:21:23 PM 51.6667 -59.4500 254° West 430 495 38,000  Level Moncton Center
Fri 12:22:23 PM 51.6167 -59.6167 244° Southwest 420 483 38,000  Level Moncton Center
Fri 12:23:23 PM 51.5667 -59.8000 246° West 420 483 38,000  Level Moncton Center
Fri 12:24:23 PM 51.5167 -59.9667 244° Southwest 420 483 38,000  Level Moncton Center
Fri 12:25:23 PM 51.4500 -60.1333 237° Southwest 420 483 38,000  Level Moncton Center
Fri 12:26:23 PM 51.4167 -60.2833 250° West 420 483 38,000  Level Moncton Center
Fri 12:27:23 PM 51.3667 -60.4500 244° Southwest 410 472 38,000 -150 Level Moncton Center
Fri 12:28:23 PM 51.3000 -60.6167 237° Southwest 400 460 37,700 -350 Descending Moncton Center
Fri 12:29:23 PM 51.2667 -60.7667 250° West 380 437 37,300 -450 Descending Moncton Center
Fri 12:30:23 PM 51.2167 -60.9167 242° Southwest 370 426 36,800 -400 Descending Moncton Center
Fri 12:31:23 PM 51.1667 -61.0667 242° Southwest 380 437 36,500 -350 Descending Moncton Center
Fri 12:32:23 PM 51.1167 -61.2167 242° Southwest 390 449 36,100 -250 Descending Moncton Center
Fri 12:33:23 PM 51.0833 -61.3833 252° West 400 460 36,000 -50 Descending Moncton Center
Fri 12:34:23 PM 51.0333 -61.5500 245° Southwest 400 460 36,000  Level Moncton Center
Fri 12:35:23 PM 50.9667 -61.7167 238° Southwest 400 460 36,000  Level Moncton Center
Fri 12:36:23 PM 50.9167 -61.8500 239° Southwest 390 449 36,000  Level Moncton Center
Fri 12:37:23 PM 50.8667 -62.0167 245° Southwest 390 449 36,000  Level Moncton Center
Fri 12:38:23 PM 50.8333 -62.1667 251° West 390 449 36,000  Level Moncton Center
Fri 12:39:23 PM 50.7833 -62.3333 245° Southwest 390 449 36,000  Level Moncton Center
Fri 12:40:23 PM 50.7333 -62.4667 239° Southwest 390 449 36,000  Level Moncton Center
Fri 12:41:23 PM 50.6667 -62.6333 238° Southwest 400 460 36,000  Level Moncton Center
Fri 12:42:23 PM 50.6167 -62.7833 242° Southwest 400 460 36,000  Level Moncton Center
Fri 12:43:23 PM 50.5667 -62.9500 245° Southwest 410 472 36,000  Level Moncton Center
Fri 12:44:23 PM 50.5167 -63.1000 242° Southwest 410 472 36,000  Level Moncton Center
Fri 12:45:23 PM 50.4500 -63.2667 238° Southwest 410 472 36,000  Level Moncton Center
Fri 12:46:23 PM 50.4000 -63.4333 245° Southwest 410 472 36,000  Level Moncton Center
Fri 12:47:23 PM 50.3500 -63.5833 242° Southwest 420 483 36,000  Level Moncton Center
Fri 12:48:23 PM 50.3000 -63.7500 245° Southwest 420 483 36,000  Level Moncton Center
Fri 12:49:23 PM 50.2500 -63.9000 243° Southwest 420 483 36,000  Level Moncton Center
Fri 12:50:23 PM 50.1833 -64.0500 235° Southwest 410 472 36,000  Level Moncton Center
Fri 12:51:23 PM 50.1333 -64.2167 245° Southwest 410 472 36,000  Level Moncton Center
Fri 12:52:23 PM 50.0833 -64.3667 243° Southwest 410 472 36,000  Level Moncton Center
Fri 12:53:23 PM 50.0167 -64.5333 238° Southwest 400 460 36,000  Level Moncton Center
Fri 12:54:23 PM 49.9667 -64.6500 236° Southwest 400 460 36,000  Level Moncton Center
Fri 12:55:23 PM 49.9167 -64.8333 247° West 400 460 36,000  Level Moncton Center
Fri 12:56:23 PM 49.8500 -64.9667 232° Southwest 400 460 36,000  Level Moncton Center
Fri 12:57:23 PM 49.7833 -65.1167 235° Southwest 400 460 36,000  Level Moncton Center
Fri 12:58:23 PM 49.7333 -65.2833 245° Southwest 410 472 36,000  Level Moncton Center
Fri 12:59:23 PM 49.6833 -65.4333 243° Southwest 410 472 36,000  Level Moncton Center
Fri 01:00:23 PM 49.6167 -65.5833 236° Southwest 410 472 36,000  Level Moncton Center
Fri 01:01:23 PM 49.5667 -65.7333 243° Southwest 410 472 36,000  Level Moncton Center
Fri 01:02:23 PM 49.5167 -65.9000 245° Southwest 410 472 36,000  Level Moncton Center
Fri 01:03:23 PM 49.4500 -66.0500 236° Southwest 410 472 36,000  Level Moncton Center
Fri 01:04:23 PM 49.4000 -66.2000 243° Southwest 420 483 36,000  Level Moncton Center
Fri 01:05:23 PM 49.3333 -66.3500 236° Southwest 420 483 36,000  Level Moncton Center
Fri 01:06:23 PM 49.2667 -66.5000 236° Southwest 420 483 36,000  Level Moncton Center
Fri 01:07:23 PM 49.2167 -66.6833 247° West 420 483 36,000  Level Moncton Center
Fri 01:08:23 PM 49.1500 -66.8333 236° Southwest 420 483 36,000  Level Moncton Center
Fri 01:09:23 PM 49.1000 -66.9833 243° Southwest 420 483 36,000  Level Moncton Center
Fri 01:10:23 PM 49.0333 -67.1333 236° Southwest 420 483 36,000  Level Moncton Center
Fri 01:11:23 PM 48.9667 -67.2833 236° Southwest 420 483 36,000  Level Moncton Center
Fri 01:12:23 PM 48.9167 -67.4333 243° Southwest 420 483 36,000  Level Moncton Center
Fri 01:13:23 PM 48.8500 -67.5833 236° Southwest 420 483 36,000  Level Moncton Center
Fri 01:14:23 PM 48.7833 -67.7333 236° Southwest 420 483 36,000  Level Moncton Center
Fri 01:15:23 PM 48.7333 -67.8833 243° Southwest 420 483 36,000  Level Moncton Center
Fri 01:16:23 PM 48.6667 -68.0500 239° Southwest 420 483 36,000  Level Moncton Center
Fri 01:17:23 PM 48.6167 -68.1667 237° Southwest 420 483 36,000  Level Moncton Center
Fri 01:18:23 PM 48.5333 -68.3500 236° Southwest 420 483 36,000  Level Moncton Center
Fri 01:19:23 PM 48.4833 -68.4833 241° Southwest 420 483 36,000  Level Moncton Center
Fri 01:20:23 PM 48.4167 -68.6333 236° Southwest 420 483 36,000 126 Level Moncton Center
Fri 01:25:43 PM 48.1570 -69.4510 236° Southwest 408 470 36,800 134 Climbing FlightAware ADS-B
Fri 01:26:22 PM 48.1400 -69.5410 254° West 408 470 36,800 429 Level FlightAware ADS-B
Fri 01:27:07 PM 48.1110 -69.6900 254° West 410 472 37,400 447 Climbing FlightAware ADS-B
Fri 01:27:56 PM 48.0870 -69.8160 254° West 410 472 37,500 404 Climbing FlightAware ADS-B
Fri 01:28:36 PM 48.0650 -69.9280 254° West 412 474 38,000 375 Climbing FlightAware ADS-B
Fri 01:29:16 PM 48.0430 -70.0420 254° West 411 473 38,000  Level FlightAware ADS-B
Fri 01:30:30 PM 48.0110 -70.2020 253° West 412 474 38,000  Level FlightAware ADS-B
Fri 01:31:21 PM 47.9750 -70.3870 254° West 412 474 38,000  Level FlightAware ADS-B
Fri 01:32:26 PM 47.9400 -70.5610 253° West 412 474 38,000  Level FlightAware ADS-B
Fri 01:33:06 PM 47.9180 -70.6670 253° West 413 475 38,000  Level FlightAware ADS-B
Fri 01:33:56 PM 47.8980 -70.7650 253° West 412 474 38,000  Level FlightAware ADS-B
Fri 01:34:28 PM 47.8780 -70.8680 254° West 412 474 38,000  Level FlightAware ADS-B
Fri 01:35:13 PM 47.8480 -71.0110 253° West 411 473 38,000  Level FlightAware ADS-B
Fri 01:35:53 PM 47.8250 -71.1250 253° West 412 474 38,000  Level FlightAware ADS-B
Fri 01:36:43 PM 47.7990 -71.2480 253° West 411 473 38,000  Level FlightAware ADS-B
Fri 01:37:36 PM 47.7720 -71.3790 253° West 410 472 38,000  Level FlightAware ADS-B
Fri 01:38:21 PM 47.7510 -71.4800 253° West 414 476 38,000  Level FlightAware ADS-B
Fri 01:38:59 PM 47.7310 -71.5680 251° West 414 476 38,000  Level FlightAware ADS-B
Fri 01:39:44 PM 47.6950 -71.7410 253° West 414 476 38,000  Level FlightAware ADS-B
Fri 01:40:26 PM 47.6700 -71.8600 253° West 413 475 38,000  Level FlightAware ADS-B
Fri 01:41:06 PM 47.6470 -71.9660 252° West 413 475 38,000  Level FlightAware ADS-B
Fri 01:41:48 PM 47.6320 -72.0360 252° West 414 476 38,000  Level FlightAware ADS-B
Fri 01:42:46 PM 47.5890 -72.2310 252° West 414 476 38,000  Level FlightAware ADS-B
Fri 01:43:30 PM 47.5630 -72.3530 253° West 414 476 38,000  Level FlightAware ADS-B
Fri 01:44:15 PM 47.5370 -72.4700 252° West 414 476 38,000  Level FlightAware ADS-B
Fri 01:44:56 PM 47.5140 -72.5740 252° West 414 476 38,000  Level FlightAware ADS-B
Fri 01:45:30 PM 47.4910 -72.6750 251° West 415 478 38,000  Level FlightAware ADS-B
Fri 01:46:00 PM 47.4730 -72.7560 252° West 414 476 38,000  Level FlightAware ADS-B
Fri 01:46:46 PM 47.4470 -72.8750 252° West 414 476 38,000  Level FlightAware ADS-B
Fri 01:47:22 PM 47.4280 -72.9570 251° West 414 476 38,000  Level FlightAware ADS-B
Fri 01:48:29 PM 47.3930 -73.1120 252° West 414 476 38,000  Level FlightAware ADS-B
Fri 01:49:13 PM 47.3600 -73.2540 251° West 415 478 38,000  Level FlightAware ADS-B
Fri 01:49:51 PM 47.3370 -73.3770 255° West 416 479 38,000  Level FlightAware ADS-B
Fri 01:50:46 PM 47.3340 -73.5310 268° West 419 482 38,000  Level FlightAware ADS-B
Fri 01:51:26 PM 47.3320 -73.6460 269° West 419 482 38,000  Level FlightAware ADS-B
Fri 01:52:16 PM 47.3300 -73.7560 269° West 417 480 38,000  Level FlightAware ADS-B
Fri 01:53:19 PM 47.3280 -73.9650 269° West 415 478 38,000  Level FlightAware ADS-B
Fri 01:53:57 PM 47.3280 -74.0710 270° West 415 478 38,000  Level FlightAware ADS-B
Fri 01:54:37 PM 47.3300 -74.1730 272° West 413 475 38,000  Level FlightAware ADS-B
Fri 01:55:22 PM 47.3340 -74.3100 273° West 409 471 38,000  Level FlightAware ADS-B
Fri 01:56:10 PM 47.3370 -74.4250 272° West 408 470 38,000  Level FlightAware ADS-B
Fri 01:56:52 PM 47.3410 -74.5590 273° West 405 466 38,000  Level FlightAware ADS-B
Fri 01:57:30 PM 47.3430 -74.6410 272° West 406 467 38,000  Level FlightAware ADS-B
Fri 01:58:07 PM 47.3470 -74.7630 273° West 406 467 38,000  Level FlightAware ADS-B
Fri 01:59:07 PM 47.3510 -74.9300 272° West 411 473 38,000  Level FlightAware ADS-B
Fri 01:59:47 PM 47.3530 -75.0150 272° West 413 475 38,000  Level FlightAware ADS-B
Fri 02:00:26 PM 47.3550 -75.1050 272° West 413 475 38,000  Level FlightAware ADS-B
Fri 02:01:13 PM 47.3600 -75.2850 272° West 415 478 38,000  Level FlightAware ADS-B
Fri 02:02:00 PM 47.3630 -75.4080 272° West 415 478 38,000  Level FlightAware ADS-B
Fri 02:02:48 PM 47.3660 -75.5240 272° West 415 478 38,000  Level FlightAware ADS-B
Fri 02:03:25 PM 47.3680 -75.6130 272° West 415 478 38,000  Level FlightAware ADS-B
Fri 02:04:12 PM 47.3700 -75.7260 272° West 415 478 38,000  Level FlightAware ADS-B
Fri 02:04:49 PM 47.3820 -75.8720 277° West 414 476 38,000  Level FlightAware ADS-B
Fri 02:05:13 PM 47.3830 -75.9610 271° West 414 476 38,000  Level FlightAware ADS-B
Fri 02:06:02 PM 47.3850 -76.0780 271° West 414 476 38,000  Level FlightAware ADS-B
Fri 02:06:38 PM 47.3870 -76.1650 272° West 414 476 38,000  Level FlightAware ADS-B
Fri 02:07:24 PM 47.3900 -76.2750 272° West 414 476 38,000  Level FlightAware ADS-B
Fri 02:08:03 PM 47.3920 -76.3690 272° West 414 476 38,000  Level FlightAware ADS-B
Fri 02:08:47 PM 47.3950 -76.4750 272° West 414 476 38,000  Level FlightAware ADS-B
Fri 02:09:19 PM 47.2060 -76.5610 197° South 411 473 38,000  Level FlightAware ADS-B
Fri 02:09:59 PM 47.1630 -76.6840 243° Southwest 412 474 38,000  Level FlightAware ADS-B
Fri 02:10:43 PM 47.1240 -76.7930 242° Southwest 414 476 38,000  Level FlightAware ADS-B
Fri 02:11:21 PM 47.0900 -76.8870 242° Southwest 416 479 38,000  Level FlightAware ADS-B
Fri 02:11:59 PM 47.0650 -76.9560 242° Southwest 418 481 38,000  Level FlightAware ADS-B
Fri 02:12:42 PM 47.0260 -77.0660 243° Southwest 419 482 38,000  Level FlightAware ADS-B
Fri 02:13:21 PM 46.9820 -77.1880 242° Southwest 422 486 38,000  Level FlightAware ADS-B
Fri 02:14:02 PM 46.9430 -77.2930 241° Southwest 426 490 38,000  Level FlightAware ADS-B
Fri 02:14:47 PM 46.9020 -77.4070 242° Southwest 428 493 38,000  Level FlightAware ADS-B
Fri 02:15:27 PM 46.8650 -77.5080 242° Southwest 427 491 38,000  Level FlightAware ADS-B
Fri 02:16:12 PM 46.8230 -77.6200 241° Southwest 430 495 38,000  Level FlightAware ADS-B
Fri 02:16:55 PM 46.7820 -77.7320 242° Southwest 430 495 38,000  Level FlightAware ADS-B
Fri 02:17:37 PM 46.7420 -77.8400 242° Southwest 430 495 38,000  Level FlightAware ADS-B
Fri 02:18:16 PM 46.7050 -77.9390 241° Southwest 430 495 38,000  Level FlightAware ADS-B
Fri 02:18:53 PM 46.6690 -78.0330 241° Southwest 431 496 38,000  Level FlightAware ADS-B
Fri 02:19:35 PM 46.6300 -78.1390 242° Southwest 429 494 38,000  Level FlightAware ADS-B
Fri 02:20:17 PM 46.5900 -78.2450 241° Southwest 426 490 38,000  Level FlightAware ADS-B
Fri 02:20:58 PM 46.5510 -78.3480 241° Southwest 424 488 38,000  Level FlightAware ADS-B
Fri 02:21:36 PM 46.5260 -78.4130 241° Southwest 423 487 38,000  Level FlightAware ADS-B
Fri 02:22:22 PM 46.4840 -78.5220 241° Southwest 422 486 38,000  Level FlightAware ADS-B
Fri 02:22:59 PM 46.4480 -78.6160 241° Southwest 422 486 38,000  Level FlightAware ADS-B
Fri 02:23:39 PM 46.3990 -78.7440 241° Southwest 420 483 38,000  Level FlightAware ADS-B
Fri 02:24:19 PM 46.3620 -78.8420 241° Southwest 419 482 38,000  Level FlightAware ADS-B
Fri 02:25:04 PM 46.3200 -78.9500 241° Southwest 417 480 38,000  Level FlightAware ADS-B
Fri 02:25:47 PM 46.2860 -79.0360 240° Southwest 411 473 38,000  Level FlightAware ADS-B
Fri 02:26:24 PM 46.2560 -79.1130 241° Southwest 408 470 38,000  Level FlightAware ADS-B
Fri 02:27:11 PM 46.2010 -79.2550 241° Southwest 408 470 38,000  Level FlightAware ADS-B
Fri 02:27:51 PM 46.1640 -79.3490 240° Southwest 407 468 38,000  Level FlightAware ADS-B
Fri 02:28:35 PM 46.1230 -79.4530 240° Southwest 409 471 38,000  Level FlightAware ADS-B
Fri 02:29:15 PM 46.0850 -79.5480 240° Southwest 411 473 38,000  Level FlightAware ADS-B
Fri 02:29:53 PM 46.0530 -79.6290 240° Southwest 412 474 38,000  Level FlightAware ADS-B
Fri 02:30:37 PM 46.0190 -79.7150 240° Southwest 415 478 38,000  Level FlightAware ADS-B
Fri 02:31:30 PM 45.9560 -79.8720 240° Southwest 419 482 38,000  Level FlightAware ADS-B
Fri 02:31:57 PM 45.9300 -79.9360 240° Southwest 421 484 38,000  Level FlightAware ADS-B
Fri 02:32:34 PM 45.8940 -80.0260 240° Southwest 422 486 38,000  Level FlightAware ADS-B
Fri 02:33:15 PM 45.8540 -80.1250 240° Southwest 422 486 38,000  Level FlightAware ADS-B
Fri 02:33:59 PM 45.8110 -80.2310 240° Southwest 422 486 38,000  Level FlightAware ADS-B
Fri 02:34:37 PM 45.7730 -80.3230 239° Southwest 421 484 38,000  Level FlightAware ADS-B
Fri 02:35:22 PM 45.7290 -80.4310 240° Southwest 420 483 38,000  Level FlightAware ADS-B
Fri 02:36:05 PM 45.6870 -80.5340 240° Southwest 419 482 38,000  Level FlightAware ADS-B
Fri 02:36:45 PM 45.6480 -80.6300 240° Southwest 421 484 38,000  Level FlightAware ADS-B
Fri 02:37:29 PM 45.6040 -80.7350 239° Southwest 424 488 38,000  Level FlightAware ADS-B
Fri 02:38:09 PM 45.5640 -80.8310 239° Southwest 425 489 38,000  Level FlightAware ADS-B
Fri 02:38:58 PM 45.5150 -80.9500 240° Southwest 429 494 38,000  Level FlightAware ADS-B
Fri 02:39:36 PM 45.4770 -81.0400 239° Southwest 430 495 38,000  Level FlightAware ADS-B
Fri 02:40:39 PM 45.4190 -81.1770 239° Southwest 433 498 38,000  Level FlightAware ADS-B
Fri 02:41:42 PM 45.3600 -81.3170 239° Southwest 433 498 38,000  Level FlightAware ADS-B
Fri 02:42:21 PM 45.3090 -81.4400 240° Southwest 434 499 38,000  Level FlightAware ADS-B
Fri 02:43:02 PM 45.2660 -81.5390 238° Southwest 435 501 38,000  Level FlightAware ADS-B
Fri 02:43:47 PM 45.2170 -81.6530 239° Southwest 440 506 38,000  Level FlightAware ADS-B
Fri 02:44:27 PM 45.1760 -81.7510 239° Southwest 440 506 38,000  Level FlightAware ADS-B
Fri 02:45:06 PM 45.1350 -81.8470 239° Southwest 441 507 38,000  Level FlightAware ADS-B
Fri 02:45:45 PM 45.1080 -81.9070 237° Southwest 442 509 38,000  Level FlightAware ADS-B
Fri 02:46:19 PM 45.0690 -81.9980 239° Southwest 442 509 38,000  Level FlightAware ADS-B
Fri 02:46:57 PM 45.0190 -82.1140 239° Southwest 442 509 38,000  Level FlightAware ADS-B
Fri 02:47:43 PM 44.9670 -82.2330 238° Southwest 442 509 38,000  Level FlightAware ADS-B
Fri 02:48:24 PM 44.9240 -82.3320 238° Southwest 442 509 38,000  Level FlightAware ADS-B
Fri 02:49:02 PM 44.8830 -82.4250 238° Southwest 441 507 38,000 -81 Level FlightAware ADS-B
Fri 02:49:38 PM 44.8490 -82.5010 238° Southwest 442 509 37,900 -337 Descending FlightAware ADS-B
Fri 02:50:31 PM 44.8000 -82.6120 238° Southwest 440 506 37,500 -495 Descending FlightAware ADS-B
Fri 02:51:15 PM 44.7400 -82.7490 238° Southwest 432 497 37,100 -558 Descending FlightAware ADS-B
Fri 02:51:57 PM 44.6950 -82.8490 238° Southwest 438 504 36,700 -632 Descending FlightAware ADS-B
Fri 02:52:31 PM 44.6570 -82.9330 238° Southwest 442 509 36,300 -667 Descending FlightAware ADS-B
Fri 02:53:00 PM 44.6270 -83.0010 238° Southwest 442 509 36,000 -257 Descending FlightAware ADS-B
Fri 02:53:41 PM 44.5900 -83.0840 238° Southwest 442 509 36,000  Level FlightAware ADS-B
Fri 02:54:21 PM 44.5530 -83.1660 238° Southwest 442 509 36,000  Level FlightAware ADS-B
Fri 02:54:57 PM 44.4990 -83.2850 238° Southwest 440 506 36,000  Level FlightAware ADS-B
Fri 02:55:42 PM 44.4530 -83.3920 239° Southwest 440 506 36,000  Level FlightAware ADS-B
Fri 02:56:19 PM 44.4280 -83.4960 251° West 441 507 36,000  Level FlightAware ADS-B
Fri 02:57:03 PM 44.4020 -83.6160 253° West 439 505 36,000  Level FlightAware ADS-B
Fri 02:57:39 PM 44.3870 -83.6890 254° West 439 505 36,000 -75 Level FlightAware ADS-B
Fri 02:58:23 PM 44.3650 -83.7920 253° West 436 502 35,900 -614 Descending FlightAware ADS-B
Fri 02:59:07 PM 44.3310 -83.9490 253° West 438 504 35,100 -903 Descending FlightAware ADS-B
Fri 02:59:56 PM 44.3030 -84.0770 253° West 443 510 34,500 -652 Descending FlightAware ADS-B
Fri 03:00:39 PM 44.2840 -84.1640 253° West 442 509 34,100 -667 Descending FlightAware ADS-B
Fri 03:01:26 PM 44.2540 -84.3020 253° West 443 510 33,500 -767 Descending FlightAware ADS-B
Fri 03:02:05 PM 44.2330 -84.3960 253° West 445 512 33,000 -857 Descending FlightAware ADS-B
Fri 03:02:50 PM 44.1980 -84.5570 253° West 448 516 32,300 -682 Descending FlightAware ADS-B
Fri 03:03:33 PM 44.1710 -84.6760 252° West 448 516 32,000 -220 Descending FlightAware ADS-B
Fri 03:04:12 PM 44.1470 -84.7840 253° West 445 512 32,000  Level FlightAware ADS-B
Fri 03:04:56 PM 44.1200 -84.9030 252° West 445 512 32,000  Level FlightAware ADS-B
Fri 03:05:40 PM 44.0990 -84.9960 253° West 444 511 32,000  Level FlightAware ADS-B
Fri 03:06:22 PM 44.0580 -85.0840 237° Southwest 450 518 32,000  Level FlightAware ADS-B
Fri 03:06:39 PM 44.0240 -85.1100 209° Southwest 460 529 32,000  Level FlightAware ADS-B
Fri 03:07:23 PM 43.9050 -85.1490 193° South 466 536 32,000  Level FlightAware ADS-B
Fri 03:08:04 PM 43.8220 -85.1750 193° South 467 537 32,000  Level FlightAware ADS-B
Fri 03:08:47 PM 43.7280 -85.2040 193° South 466 536 32,000  Level FlightAware ADS-B
Fri 03:09:26 PM 43.6450 -85.2300 193° South 467 537 32,000  Level FlightAware ADS-B
Fri 03:10:06 PM 43.5880 -85.2480 193° South 468 539 32,000  Level FlightAware ADS-B
Fri 03:10:46 PM 43.5060 -85.2740 193° South 469 540 32,000  Level FlightAware ADS-B
Fri 03:11:15 PM 43.4470 -85.2930 193° South 470 541 32,000  Level FlightAware ADS-B
Fri 03:11:52 PM 43.3370 -85.3270 193° South 471 542 32,000  Level FlightAware ADS-B
Fri 03:12:34 PM 43.2460 -85.3560 193° South 473 544 32,000  Level FlightAware ADS-B
Fri 03:13:18 PM 43.1530 -85.3840 192° South 474 545 32,000  Level FlightAware ADS-B
Fri 03:14:02 PM 43.0580 -85.4140 193° South 475 547 32,000 -70 Level FlightAware ADS-B
Fri 03:14:44 PM 42.9670 -85.4420 193° South 479 551 31,900 -651 Descending FlightAware ADS-B
Fri 03:15:25 PM 42.8800 -85.4680 192° South 475 547 31,100 -947 Descending FlightAware ADS-B
Fri 03:16:00 PM 42.8370 -85.4870 198° South 459 528 30,700 -1,091 Descending FlightAware ADS-B
Fri 03:16:20 PM 42.8030 -85.5190 215° Southwest 449 517 30,100 -1,909 Descending FlightAware ADS-B
Fri 03:16:44 PM 42.7750 -85.5730 235° Southwest 439 505 29,300 -2,000 Descending FlightAware ADS-B
Fri 03:17:35 PM 42.7490 -85.7080 255° West 430 495 27,600 -2,000 Descending FlightAware ADS-B
Fri 03:18:20 PM 42.7210 -85.8630 256° West 423 487 26,100 -1,655 Descending FlightAware ADS-B
Fri 03:19:02 PM 42.7010 -85.9710 256° West 421 484 25,200 -1,231 Descending FlightAware ADS-B
Fri 03:19:38 PM 42.6850 -86.0610 256° West 416 479 24,500 -1,154 Descending FlightAware ADS-B
Fri 03:20:20 PM 42.6710 -86.1360 256° West 404 465 23,700 -2,096 Descending FlightAware ADS-B
Fri 03:21:01 PM 42.6470 -86.2650 256° West 398 458 21,600 -2,519 Descending FlightAware ADS-B
Fri 03:21:41 PM 42.6290 -86.3600 256° West 390 449 20,300 -2,026 Descending FlightAware ADS-B
Fri 03:22:18 PM 42.6140 -86.4440 256° West 382 440 19,000 -2,276 Descending FlightAware ADS-B
Fri 03:23:08 PM 42.5910 -86.5640 255° West 374 430 17,000 -1,765 Descending FlightAware ADS-B
Fri 03:23:43 PM 42.5830 -86.6080 256° West 371 427 16,500 -1,343 Descending FlightAware ADS-B
Fri 03:24:15 PM 42.5700 -86.6770 256° West 366 421 15,500 -1,816 Descending FlightAware ADS-B
Fri 03:24:59 PM 42.5470 -86.7760 253° West 360 414 14,200 -2,114 Descending FlightAware ADS-B
Fri 03:25:43 PM 42.5140 -86.8980 250° West 352 405 12,400 -2,270 Descending FlightAware ADS-B
Fri 03:26:13 PM 42.4970 -86.9600 250° West 352 405 11,400 -1,629 Descending FlightAware ADS-B
Fri 03:26:53 PM 42.4740 -87.0430 249° West 345 397 10,500 -1,063 Descending FlightAware ADS-B
Fri 03:27:32 PM 42.4530 -87.1190 249° West 331 381 10,000 -375 Descending FlightAware ADS-B
Fri 03:28:13 PM 42.4370 -87.1780 250° West 297 342 10,000  Level FlightAware ADS-B
Fri 03:28:26 PM 42.4270 -87.2130 249° West 277 319 10,000 -522 Level FlightAware ADS-B
Fri 03:28:59 PM 42.4070 -87.2660 243° Southwest 276 318 9,600 -714 Descending FlightAware ADS-B
Fri 03:29:08 PM 42.4000 -87.2740 220° Southwest 285 328 9,500 -1,034 Descending FlightAware ADS-B
Fri 03:29:28 PM 42.3730 -87.2830 194° South 299 344 9,100 -1,180 Descending FlightAware ADS-B
Fri 03:30:09 PM 42.3150 -87.2830 180° South 296 341 8,300 -1,119 Descending FlightAware ADS-B
Fri 03:30:27 PM 42.2910 -87.2830 180° South 292 336 8,000 -698 Descending FlightAware ADS-B
Fri 03:30:52 PM 42.2770 -87.2830 180° South 290 334 7,800 -824 Descending FlightAware ADS-B
Fri 03:31:18 PM 42.2440 -87.2840 181° South 284 327 7,300 -1,358 Descending FlightAware ADS-B
Fri 03:31:45 PM 42.1920 -87.2840 180° South 269 310 6,600 -1,102 Descending FlightAware ADS-B
Fri 03:32:07 PM 42.1650 -87.2840 180° South 268 308 6,400 -720 Descending FlightAware ADS-B
Fri 03:32:35 PM 42.1300 -87.2840 180° South 264 304 6,000 -716 Descending FlightAware ADS-B
Fri 03:33:14 PM 42.0820 -87.2860 182° South 260 299 5,600 -600 Descending FlightAware ADS-B
Fri 03:33:45 PM 42.0450 -87.2900 185° South 255 293 5,300 -511 Descending FlightAware ADS-B
Fri 03:34:01 PM 42.0310 -87.3040 217° Southwest 248 285 5,200 -324 Descending FlightAware ADS-B
Fri 03:34:22 PM 42.0170 -87.3290 233° Southwest 245 282 5,100 -115 Descending FlightAware ADS-B
Fri 03:34:53 PM 42.0040 -87.3570 238° Southwest 248 285 5,100 -102 Level FlightAware ADS-B
Fri 03:35:21 PM 41.9880 -87.3880 235° Southwest 242 278 5,000 -900 Descending FlightAware ADS-B
Fri 03:35:33 PM 41.9720 -87.4230 238° Southwest 235 270 4,500 -1,250 Descending FlightAware ADS-B
Fri 03:35:45 PM 41.9700 -87.4390 260° West 231 266 4,500 -450 Level FlightAware ADS-B
Fri 03:36:13 PM 41.9690 -87.4770 268° West 218 251 4,200 -453 Descending FlightAware ADS-B
Fri 03:36:38 PM 41.9690 -87.5090 270° West 211 243 4,100 -87 Descending FlightAware ADS-B
Fri 03:37:22 PM 41.9690 -87.5620 270° West 187 215 4,100  Level FlightAware ADS-B
Fri 03:37:52 PM 41.9690 -87.5950 270° West 181 208 4,100  Level FlightAware ADS-B
Fri 03:38:18 PM 41.9690 -87.6250 270° West 185 213 4,100 -226 Level FlightAware ADS-B
Fri 03:38:45 PM 41.9690 -87.6560 270° West 180 207 3,900 -610 Descending FlightAware ADS-B
Fri 03:39:17 PM 41.9690 -87.6890 270° West 178 205 3,500 -871 Descending FlightAware ADS-B
Fri 03:39:47 PM 41.9690 -87.7250 270° West 175 201 3,000 -842 Descending FlightAware ADS-B
Fri 03:40:14 PM 41.9690 -87.7490 270° West 168 193 2,700 -632 Descending FlightAware ADS-B
Fri 03:40:44 PM 41.9690 -87.7700 270° West 169 194 2,400 -778 Descending FlightAware ADS-B
Fri 03:41:08 PM 41.9690 -87.7930 270° West 153 176 2,000 -750 Descending FlightAware ADS-B
Fri 03:41:40 PM 41.9690 -87.8210 270° West 141 162 1,700 -805 Descending FlightAware ADS-B
Fri 03:42:30 PM 41.9690 -87.8750 270° West 134 154 900 -909 Descending FlightAware ADS-B
Fri 03:42:46 PM 41.9690 -87.8870 270° West 134 154 700 -286 Descending FlightAware ADS-B
Fri 03:43:12 PM 41.9690 -87.9050 270° West 134 154 700  Level FlightAware ADS-B

Login

Don't have an account? Register now (free) for customized features, flight alerts, and more!